Time;durP1;ratioP1;P1;durP2;ratioP2;P2;SDS_P1;SDS_P2;PMS_P1;PMS_P2;Temp;Humidity;BMP_temperature;BMP_pressure;BME280_temperature;BME280_humidity;BME280_pressure;Samples;Min_cycle;Max_cycle;Signal;HPM_P1;HPM_P2
2022/03/11 00:02:23;;;;;;;14.35;8.65;;;5.50;99.90;;;;;;4997614;28;20054;-76
2022/03/11 00:04:49;;;;;;;16.10;8.90;;;5.50;99.90;;;;;;4997303;28;20080;-76
2022/03/11 00:07:15;;;;;;;17.50;9.52;;;5.50;99.90;;;;;;5014978;28;20034;-81
2022/03/11 00:09:41;;;;;;;13.88;8.10;;;5.40;99.90;;;;;;4997234;28;20177;-80
2022/03/11 00:12:08;;;;;;;14.77;9.23;;;5.40;99.90;;;;;;4997254;28;20079;-80
2022/03/11 00:14:34;;;;;;;16.08;9.50;;;5.30;99.90;;;;;;4997100;28;20401;-80
2022/03/11 00:17:00;;;;;;;18.00;9.15;;;5.40;99.90;;;;;;4997231;28;20095;-80
2022/03/11 00:19:26;;;;;;;17.40;8.70;;;5.30;99.90;;;;;;4997116;28;20403;-80
2022/03/11 00:21:51;;;;;;;16.23;9.38;;;5.30;99.90;;;;;;4997229;28;20042;-80
2022/03/11 00:24:17;;;;;;;16.73;9.48;;;5.30;99.90;;;;;;4997258;28;20049;-80
2022/03/11 00:26:43;;;;;;;13.63;8.45;;;5.30;99.90;;;;;;4997307;28;20038;-80
2022/03/11 00:29:09;;;;;;;15.50;8.38;;;5.20;99.90;;;;;;4996596;28;20436;-80
2022/03/11 00:31:34;;;;;;;18.40;8.88;;;5.20;99.90;;;;;;4996800;28;20474;-80
2022/03/11 00:34:00;;;;;;;16.67;8.70;;;5.10;99.90;;;;;;4996792;28;20034;-79
2022/03/11 00:36:26;;;;;;;15.98;9.23;;;5.10;99.90;;;;;;4996818;28;20104;-80
2022/03/11 00:38:51;;;;;;;20.05;9.27;;;5.10;99.90;;;;;;4996746;28;20080;-79
2022/03/11 00:41:17;;;;;;;15.05;8.20;;;5.10;99.90;;;;;;4997009;28;20393;-80
2022/03/11 00:43:43;;;;;;;16.13;8.70;;;5.10;99.90;;;;;;4996556;28;20088;-80
2022/03/11 00:46:09;;;;;;;15.02;7.78;;;5.10;99.90;;;;;;4996591;28;20413;-80
2022/03/11 00:48:35;;;;;;;15.65;8.70;;;5.10;99.90;;;;;;4996738;28;20042;-80
2022/03/11 00:51:00;;;;;;;13.98;7.93;;;5.10;99.90;;;;;;4997306;28;20465;-80
2022/03/11 00:53:27;;;;;;;14.20;8.45;;;5.00;99.90;;;;;;4996505;28;20108;-80
2022/03/11 00:55:54;;;;;;;13.20;9.52;;;5.00;99.90;;;;;;4996502;28;20041;-80
2022/03/11 00:58:20;;;;;;;14.52;8.35;;;4.90;99.90;;;;;;4996131;28;20050;-80
2022/03/11 01:00:45;;;;;;;18.70;8.73;;;5.00;99.90;;;;;;4996514;28;20041;-80
2022/03/11 01:03:11;;;;;;;15.90;7.72;;;5.00;99.90;;;;;;4996390;28;20099;-80
2022/03/11 01:05:37;;;;;;;16.10;8.07;;;4.90;99.90;;;;;;5014017;28;20045;-80
2022/03/11 01:08:02;;;;;;;17.10;9.13;;;4.90;99.90;;;;;;5014001;28;20033;-80
2022/03/11 01:10:28;;;;;;;14.30;8.43;;;4.90;99.90;;;;;;4996630;28;20382;-80
2022/03/11 01:12:54;;;;;;;13.27;8.02;;;4.90;99.90;;;;;;4996140;28;20064;-80
2022/03/11 01:15:20;;;;;;;17.50;9.15;;;4.80;99.90;;;;;;4996159;28;20053;-79
2022/03/11 01:17:46;;;;;;;16.20;8.48;;;4.80;99.90;;;;;;4996375;28;20057;-80
2022/03/11 01:20:12;;;;;;;15.55;8.38;;;4.70;99.90;;;;;;4996237;28;20454;-79
2022/03/11 01:22:38;;;;;;;15.18;7.82;;;4.70;99.90;;;;;;4996510;28;20060;-80
2022/03/11 01:25:05;;;;;;;14.20;8.02;;;4.70;99.90;;;;;;4996132;28;20046;-79
2022/03/11 01:27:31;;;;;;;15.00;8.02;;;4.70;99.90;;;;;;4995568;28;20050;-80
2022/03/11 01:29:57;;;;;;;15.43;8.38;;;4.70;99.90;;;;;;4996029;28;20056;-80
2022/03/11 01:32:22;;;;;;;16.77;8.07;;;4.70;99.90;;;;;;4996368;28;20042;-80
2022/03/11 01:34:48;;;;;;;14.27;8.18;;;4.60;99.90;;;;;;4996352;28;20046;-80
2022/03/11 01:37:13;;;;;;;16.00;8.50;;;4.60;99.90;;;;;;4996196;28;20042;-80
2022/03/11 01:39:39;;;;;;;14.02;8.15;;;4.60;99.90;;;;;;4996155;28;20045;-80
2022/03/11 01:42:06;;;;;;;15.85;8.75;;;4.60;99.90;;;;;;5013432;28;20038;-80
2022/03/11 01:44:31;;;;;;;14.02;8.07;;;4.60;99.90;;;;;;4996102;28;20045;-80
2022/03/11 01:46:57;;;;;;;15.23;7.95;;;4.50;99.90;;;;;;4996251;28;20053;-80
2022/03/11 01:49:23;;;;;;;14.27;8.30;;;4.60;99.90;;;;;;4995959;28;20034;-80
2022/03/11 01:51:49;;;;;;;15.88;7.57;;;4.50;99.90;;;;;;4995919;28;20107;-80
2022/03/11 01:54:15;;;;;;;14.65;9.00;;;4.50;99.90;;;;;;4996234;28;20050;-79
2022/03/11 01:56:41;;;;;;;17.00;8.43;;;4.50;99.90;;;;;;4996201;28;20050;-80
2022/03/11 01:59:08;;;;;;;14.90;8.93;;;4.50;99.90;;;;;;4995736;28;20443;-80
2022/03/11 02:01:34;;;;;;;17.35;8.90;;;4.50;99.90;;;;;;4995498;28;20081;-80
2022/03/11 02:04:00;;;;;;;16.75;9.02;;;4.40;99.90;;;;;;4995881;28;20425;-80
2022/03/11 02:06:26;;;;;;;18.15;10.85;;;4.40;99.90;;;;;;4995831;28;20095;-80
2022/03/11 02:08:53;;;;;;;20.20;9.30;;;4.40;99.90;;;;;;4997123;28;20049;-80
2022/03/11 02:11:19;;;;;;;17.67;9.30;;;4.30;99.90;;;;;;4999885;28;20148;-80
2022/03/11 02:13:49;;;;;;;17.88;10.02;;;4.30;99.90;;;;;;4999529;28;20510;-80
2022/03/11 02:16:20;;;;;;;18.33;10.60;;;4.30;99.90;;;;;;4999588;28;20093;-80
2022/03/11 02:18:47;;;;;;;18.48;9.98;;;4.30;99.90;;;;;;4999301;28;20053;-80
2022/03/11 02:21:13;;;;;;;19.17;9.63;;;4.30;99.90;;;;;;4999533;28;20152;-80
2022/03/11 02:23:46;;;;;;;18.42;10.43;;;4.30;99.90;;;;;;4999368;28;20050;-80
2022/03/11 02:26:14;;;;;;;16.33;9.77;;;4.20;99.90;;;;;;4999096;28;20042;-80
2022/03/11 02:28:40;;;;;;;21.63;11.13;;;4.20;99.90;;;;;;4999041;28;20159;-80
2022/03/11 02:31:06;;;;;;;22.63;10.02;;;4.20;99.90;;;;;;4999182;28;20444;-80
2022/03/11 02:33:31;;;;;;;22.00;10.98;;;4.10;99.90;;;;;;4999426;28;20474;-80
2022/03/11 02:35:57;;;;;;;24.48;12.73;;;4.10;99.90;;;;;;4999287;28;20077;-80
2022/03/11 02:38:23;;;;;;;17.60;10.75;;;4.10;99.90;;;;;;4998861;28;20168;-80
2022/03/11 02:40:49;;;;;;;21.85;11.35;;;4.10;99.90;;;;;;4999189;28;20053;-80
2022/03/11 02:43:15;;;;;;;21.60;11.10;;;4.10;99.90;;;;;;4999115;28;20458;-77
2022/03/11 02:45:41;;;;;;;22.83;12.63;;;4.10;99.90;;;;;;4998738;28;20501;-76
2022/03/11 02:48:06;;;;;;;19.92;11.93;;;4.00;99.90;;;;;;4999160;28;20080;-81
2022/03/11 02:50:32;;;;;;;23.73;13.20;;;4.00;99.90;;;;;;5016362;28;20115;-80
2022/03/11 02:52:58;;;;;;;21.83;12.73;;;4.00;99.90;;;;;;4998856;28;20081;-80
2022/03/11 02:55:24;;;;;;;22.13;13.25;;;4.00;99.90;;;;;;4999044;28;20104;-80
2022/03/11 02:57:49;;;;;;;21.70;11.93;;;4.00;99.90;;;;;;5016013;28;20096;-80
2022/03/11 03:00:15;;;;;;;26.20;12.82;;;4.00;99.90;;;;;;4998393;28;20069;-80
2022/03/11 03:02:41;;;;;;;25.20;13.95;;;4.00;99.90;;;;;;4998864;28;20081;-79
2022/03/11 03:05:07;;;;;;;25.33;13.20;;;4.00;99.90;;;;;;4998777;28;20422;-79
2022/03/11 03:07:33;;;;;;;21.75;12.45;;;3.90;99.90;;;;;;4998515;28;20104;-79
2022/03/11 03:09:58;;;;;;;23.20;13.68;;;3.90;99.90;;;;;;4998503;28;20393;-79
2022/03/11 03:12:25;;;;;;;27.35;14.45;;;3.90;99.90;;;;;;4998592;28;20053;-79
2022/03/11 03:14:51;;;;;;;27.00;14.82;;;3.90;99.90;;;;;;4998326;28;20046;-79
2022/03/11 03:17:21;;;;;;;29.50;14.55;;;3.80;99.90;;;;;;4992002;28;20165;-79
2022/03/11 03:19:48;;;;;;;30.75;13.98;;;3.80;99.90;;;;;;4978432;28;20057;-80
2022/03/11 03:22:14;;;;;;;26.73;15.05;;;3.80;99.90;;;;;;4978665;28;20038;-79
2022/03/11 03:24:40;;;;;;;25.98;15.18;;;3.70;99.90;;;;;;4978819;28;20477;-80
2022/03/11 03:27:06;;;;;;;27.13;14.73;;;3.80;99.90;;;;;;4978359;28;20129;-80
2022/03/11 03:29:31;;;;;;;26.00;14.10;;;3.80;99.90;;;;;;4978579;28;20061;-79
2022/03/11 03:32:00;;;;;;;29.67;15.50;;;3.70;99.90;;;;;;4978648;28;20074;-80
2022/03/11 03:34:27;;;;;;;28.92;15.20;;;3.70;99.90;;;;;;4978711;28;20551;-79
2022/03/11 03:36:53;;;;;;;30.88;14.27;;;3.80;99.90;;;;;;4978524;28;20126;-80
2022/03/11 03:39:19;;;;;;;30.55;16.40;;;3.70;99.90;;;;;;4979280;28;20132;-79
2022/03/11 03:41:44;;;;;;;31.30;16.35;;;3.60;99.90;;;;;;4978418;28;20472;-80
2022/03/11 03:44:10;;;;;;;31.30;15.13;;;3.70;99.90;;;;;;4978382;28;20043;-79
2022/03/11 03:46:36;;;;;;;27.33;16.73;;;3.60;99.90;;;;;;4978607;28;20055;-79
2022/03/11 03:49:02;;;;;;;29.83;15.52;;;3.60;99.90;;;;;;4978227;28;20046;-79
2022/03/11 03:51:27;;;;;;;29.77;15.65;;;3.60;99.90;;;;;;4978338;28;20057;-79
2022/03/11 03:53:53;;;;;;;28.58;15.77;;;3.50;99.90;;;;;;4978072;28;20078;-80
2022/03/11 03:56:18;;;;;;;27.77;15.88;;;3.60;99.90;;;;;;4978039;28;20529;-79
2022/03/11 03:58:44;;;;;;;29.95;15.68;;;3.60;99.90;;;;;;4978000;28;20054;-80
2022/03/11 04:01:10;;;;;;;31.45;17.17;;;3.60;99.90;;;;;;4978072;28;20085;-80
2022/03/11 04:03:36;;;;;;;35.40;15.80;;;3.50;99.90;;;;;;4978017;28;20050;-80
2022/03/11 04:06:02;;;;;;;32.78;16.20;;;3.50;99.90;;;;;;4977813;28;20039;-80
2022/03/11 04:08:27;;;;;;;31.83;16.42;;;3.50;99.90;;;;;;4977848;28;20096;-80
2022/03/11 04:10:53;;;;;;;29.58;17.48;;;3.50;99.90;;;;;;4978044;28;20038;-80
2022/03/11 04:13:18;;;;;;;28.83;15.90;;;3.50;99.90;;;;;;4977871;28;20057;-80
2022/03/11 04:15:44;;;;;;;32.05;16.17;;;3.50;99.90;;;;;;4977744;28;20057;-80
2022/03/11 04:18:10;;;;;;;29.10;15.43;;;3.50;99.90;;;;;;4977666;28;20053;-80
2022/03/11 04:20:35;;;;;;;28.60;16.40;;;3.50;99.90;;;;;;4977769;28;20053;-80
2022/03/11 04:23:01;;;;;;;32.13;17.83;;;3.40;99.90;;;;;;4977594;28;20046;-80
2022/03/11 04:25:26;;;;;;;30.02;17.10;;;3.40;99.90;;;;;;4977860;28;20046;-80
2022/03/11 04:27:52;;;;;;;33.08;18.27;;;3.40;99.90;;;;;;4994753;28;20055;-80
2022/03/11 04:30:18;;;;;;;29.23;16.70;;;3.40;99.90;;;;;;4977571;28;20397;-80
2022/03/11 04:32:44;;;;;;;31.83;16.55;;;3.40;99.90;;;;;;4976869;28;20478;-80
2022/03/11 04:35:09;;;;;;;34.08;17.75;;;3.30;99.90;;;;;;4994876;28;20173;-80
2022/03/11 04:37:35;;;;;;;33.10;17.23;;;3.30;99.90;;;;;;4994560;28;20397;-80
2022/03/11 04:40:01;;;;;;;32.35;17.00;;;3.30;99.90;;;;;;4977560;28;20466;-80
2022/03/11 04:42:27;;;;;;;32.80;16.45;;;3.30;99.90;;;;;;4994661;28;20053;-79
2022/03/11 04:44:53;;;;;;;30.13;17.63;;;3.30;99.90;;;;;;4994749;28;20046;-79
2022/03/11 04:47:18;;;;;;;33.85;17.10;;;3.20;99.90;;;;;;4977243;28;20145;-80
2022/03/11 04:49:44;;;;;;;34.13;17.25;;;3.20;99.90;;;;;;4994519;28;20046;-79
2022/03/11 04:52:09;;;;;;;32.75;17.27;;;3.20;99.90;;;;;;4994677;28;20070;-76
2022/03/11 04:54:35;;;;;;;30.80;17.77;;;3.10;99.90;;;;;;4994559;28;20053;-76
2022/03/11 04:57:01;;;;;;;30.88;18.13;;;3.10;99.90;;;;;;4977252;28;20051;-76
2022/03/11 04:59:26;;;;;;;33.45;19.00;;;3.10;99.90;;;;;;4977041;28;20132;-76
2022/03/11 05:01:52;;;;;;;35.53;19.33;;;3.10;99.90;;;;;;4977034;28;20042;-78
2022/03/11 05:04:17;;;;;;;31.55;17.17;;;3.10;99.90;;;;;;4976886;28;20494;-80
2022/03/11 05:06:43;;;;;;;29.42;14.68;;;3.10;99.90;;;;;;4994251;28;20104;-80
2022/03/11 05:09:09;;;;;;;30.08;18.15;;;3.10;99.90;;;;;;4994210;28;20050;-80
2022/03/11 05:11:34;;;;;;;30.25;16.02;;;3.00;99.90;;;;;;4976892;28;20046;-80
2022/03/11 05:14:00;;;;;;;35.92;17.63;;;3.00;99.90;;;;;;4994300;28;20140;-79
2022/03/11 05:16:25;;;;;;;28.98;16.02;;;2.90;99.90;;;;;;4994255;28;20481;-79
2022/03/11 05:18:53;;;;;;;29.65;16.48;;;3.00;99.90;;;;;;4976734;28;20050;-80
2022/03/11 05:21:19;;;;;;;29.52;16.40;;;3.00;99.90;;;;;;4976984;28;20109;-80
2022/03/11 05:23:45;;;;;;;33.50;17.20;;;2.90;99.90;;;;;;4977044;28;20046;-80
2022/03/11 05:26:24;;;;;;;30.98;17.70;;;3.00;99.90;;;;;;4976963;28;20046;-80
2022/03/11 05:28:55;;;;;;;32.75;18.50;;;2.90;99.90;;;;;;4976442;28;20489;-80
2022/03/11 05:31:22;;;;;;;33.25;17.90;;;2.90;99.90;;;;;;4976659;28;20140;-80
2022/03/11 05:33:48;;;;;;;35.60;18.17;;;2.90;99.90;;;;;;4976599;28;20034;-80
2022/03/11 05:36:15;;;;;;;34.05;18.23;;;2.80;99.90;;;;;;4976860;28;20149;-80
2022/03/11 05:38:40;;;;;;;34.15;16.40;;;2.80;99.90;;;;;;4994137;28;20050;-78
2022/03/11 05:41:06;;;;;;;32.70;17.20;;;2.80;99.90;;;;;;4976769;28;20449;-80
2022/03/11 05:43:32;;;;;;;35.38;18.63;;;2.80;99.90;;;;;;4996495;28;20390;-80
2022/03/11 05:45:57;;;;;;;31.50;18.17;;;2.70;99.90;;;;;;4980336;28;20445;-80
2022/03/11 05:48:23;;;;;;;33.10;17.42;;;2.70;99.90;;;;;;4980086;28;20494;-80
2022/03/11 05:50:48;;;;;;;32.97;17.77;;;2.60;99.90;;;;;;4980375;28;20125;-80
2022/03/11 05:53:15;;;;;;;34.03;18.77;;;2.60;99.90;;;;;;4979277;28;20408;-80
2022/03/11 05:55:41;;;;;;;34.10;17.60;;;2.60;99.90;;;;;;4979547;28;20093;-80
2022/03/11 05:58:07;;;;;;;33.60;18.70;;;2.60;99.90;;;;;;4997537;28;20046;-80
2022/03/11 06:00:32;;;;;;;30.55;16.77;;;2.60;99.90;;;;;;4979838;28;20114;-80
2022/03/11 06:02:58;;;;;;;32.75;16.98;;;2.60;99.90;;;;;;4979914;28;20042;-80
2022/03/11 06:05:24;;;;;;;33.63;16.65;;;2.60;99.90;;;;;;4980084;28;20069;-79
2022/03/11 06:07:49;;;;;;;33.72;18.63;;;2.60;99.90;;;;;;4980082;28;20054;-79
2022/03/11 06:10:15;;;;;;;31.08;16.33;;;2.60;99.90;;;;;;4979858;28;20093;-80
2022/03/11 06:12:41;;;;;;;32.90;18.90;;;2.60;99.90;;;;;;4979803;28;20038;-80
2022/03/11 06:15:14;;;;;;;32.47;17.58;;;2.50;99.90;;;;;;4979734;28;20046;-78
2022/03/11 06:17:40;;;;;;;32.63;18.08;;;2.60;99.90;;;;;;4997190;28;20382;-78
2022/03/11 06:20:08;;;;;;;31.40;17.38;;;2.60;99.90;;;;;;4979672;28;20478;-80
2022/03/11 06:22:45;;;;;;;29.73;15.45;;;2.50;99.90;;;;;;4979649;28;20042;-79
2022/03/11 06:25:10;;;;;;;33.72;16.85;;;2.50;99.90;;;;;;4979566;28;20104;-77
2022/03/11 06:27:36;;;;;;;33.38;17.35;;;2.50;99.90;;;;;;4996722;28;20133;-77
2022/03/11 06:30:02;;;;;;;34.25;16.50;;;2.50;99.90;;;;;;4997179;28;20047;-76
2022/03/11 06:32:27;;;;;;;35.92;18.40;;;2.50;99.90;;;;;;4979729;28;20043;-76
2022/03/11 06:34:54;;;;;;;34.65;18.30;;;2.50;99.90;;;;;;4996933;28;20053;-76
2022/03/11 06:37:20;;;;;;;33.45;18.02;;;2.50;99.90;;;;;;4996689;28;20038;-76
2022/03/11 06:39:46;;;;;;;32.40;15.45;;;2.50;99.90;;;;;;4996837;28;20053;-76
2022/03/11 06:42:11;;;;;;;33.20;16.58;;;2.60;99.90;;;;;;4979520;28;20042;-76
2022/03/11 06:44:37;;;;;;;33.78;17.33;;;2.60;99.90;;;;;;4979233;28;20073;-76
2022/03/11 06:47:03;;;;;;;35.08;17.52;;;2.60;99.90;;;;;;4979211;28;20565;-76
2022/03/11 06:49:29;;;;;;;33.80;17.88;;;2.70;99.90;;;;;;4979139;28;20117;-76
2022/03/11 06:51:54;;;;;;;31.27;16.95;;;2.80;99.90;;;;;;4996786;28;20089;-76
2022/03/11 06:54:20;;;;;;;31.38;17.85;;;2.80;99.90;;;;;;4978571;28;20383;-76
2022/03/11 06:56:46;;;;;;;31.95;15.63;;;2.90;99.90;;;;;;4978946;28;20442;-76
2022/03/11 06:59:12;;;;;;;29.08;15.88;;;2.90;99.90;;;;;;4978873;28;20046;-76
2022/03/11 07:01:37;;;;;;;32.85;17.00;;;3.00;99.90;;;;;;4996331;28;20504;-76
2022/03/11 07:04:03;;;;;;;29.35;16.80;;;3.10;99.90;;;;;;4979168;28;20085;-76
2022/03/11 07:06:29;;;;;;;32.63;16.90;;;3.10;99.90;;;;;;4996425;28;20038;-76
2022/03/11 07:08:54;;;;;;;31.55;16.35;;;3.20;99.90;;;;;;4996389;28;20050;-76
2022/03/11 07:11:20;;;;;;;30.65;16.35;;;3.20;99.90;;;;;;4996455;28;20125;-76
2022/03/11 07:13:46;;;;;;;33.92;17.52;;;3.30;99.90;;;;;;4996107;28;20486;-76
2022/03/11 07:16:12;;;;;;;29.27;15.95;;;3.40;99.90;;;;;;4996318;28;20053;-76
2022/03/11 07:18:37;;;;;;;33.03;17.92;;;3.40;99.90;;;;;;4978462;28;20402;-76
2022/03/11 07:21:03;;;;;;;33.03;17.23;;;3.50;99.90;;;;;;4996131;28;20482;-76
2022/03/11 07:23:29;;;;;;;34.13;18.58;;;3.60;99.90;;;;;;4978480;28;20105;-76
2022/03/11 07:25:55;;;;;;;31.90;15.88;;;3.70;99.90;;;;;;4995973;28;20049;-76
2022/03/11 07:28:21;;;;;;;27.27;14.68;;;3.80;99.90;;;;;;4978385;28;20057;-76
2022/03/11 07:30:47;;;;;;;34.65;17.73;;;3.80;99.90;;;;;;4978681;28;20077;-76
2022/03/11 07:33:12;;;;;;;27.55;16.10;;;3.90;99.90;;;;;;4996053;28;20100;-76
2022/03/11 07:35:38;;;;;;;32.97;18.17;;;3.90;99.90;;;;;;4978315;28;20401;-76
2022/03/11 07:38:05;;;;;;;29.67;17.23;;;4.00;99.90;;;;;;4978232;28;20050;-76
2022/03/11 07:40:30;;;;;;;35.35;17.92;;;4.10;99.90;;;;;;4978490;28;20086;-76
2022/03/11 07:42:56;;;;;;;28.98;17.60;;;4.10;99.90;;;;;;4995860;28;20093;-76
2022/03/11 07:45:22;;;;;;;32.72;16.45;;;4.20;99.90;;;;;;4978210;28;20082;-76
2022/03/11 07:47:47;;;;;;;32.13;17.35;;;4.30;99.90;;;;;;4978211;28;20125;-76
2022/03/11 07:50:13;;;;;;;28.13;15.80;;;4.30;99.90;;;;;;4995497;28;20405;-76
2022/03/11 07:52:40;;;;;;;33.75;16.90;;;4.40;99.90;;;;;;4978080;28;20042;-76
2022/03/11 07:55:07;;;;;;;30.60;16.98;;;4.50;99.90;;;;;;4977899;28;20097;-76
2022/03/11 07:57:36;;;;;;;33.28;17.02;;;4.60;99.90;;;;;;4995268;28;20050;-76
2022/03/11 08:00:05;;;;;;;33.00;15.68;;;4.70;99.90;;;;;;4995175;28;20057;-76
2022/03/11 08:02:31;;;;;;;30.20;17.25;;;4.90;99.90;;;;;;4977819;28;20048;-76
2022/03/11 08:04:57;;;;;;;28.90;16.33;;;4.90;99.90;;;;;;4977780;28;20414;-79
2022/03/11 08:07:23;;;;;;;28.35;15.20;;;5.00;99.90;;;;;;4986433;28;20062;-76
2022/03/11 08:09:49;;;;;;;28.30;14.90;;;5.00;99.90;;;;;;4978412;28;20548;-76
2022/03/11 08:12:15;;;;;;;29.80;16.52;;;5.10;99.90;;;;;;4977753;28;20062;-76
2022/03/11 08:14:40;;;;;;;33.50;16.30;;;5.20;99.90;;;;;;4977965;28;20100;-76
2022/03/11 08:17:06;;;;;;;31.02;15.52;;;5.40;99.90;;;;;;4977202;28;20500;-77
2022/03/11 08:19:32;;;;;;;27.77;16.35;;;5.40;99.90;;;;;;4977329;28;20100;-77
2022/03/11 08:21:58;;;;;;;28.17;15.95;;;5.50;99.90;;;;;;4977161;28;20038;-78
2022/03/11 08:24:24;;;;;;;28.40;15.88;;;5.60;99.90;;;;;;4977305;28;20054;-76
2022/03/11 08:26:50;;;;;;;27.30;15.13;;;5.70;99.90;;;;;;4994809;28;20046;-77
2022/03/11 08:29:16;;;;;;;32.25;16.08;;;5.80;99.90;;;;;;4994463;28;20060;-76
2022/03/11 08:31:43;;;;;;;28.88;15.38;;;6.00;99.90;;;;;;4994497;28;20508;-76
2022/03/11 08:34:09;;;;;;;29.23;16.15;;;6.00;99.90;;;;;;4977010;28;20047;-77
2022/03/11 08:36:35;;;;;;;27.27;15.52;;;6.10;99.90;;;;;;4977140;28;20054;-77
2022/03/11 08:39:01;;;;;;;26.60;16.13;;;6.20;99.90;;;;;;4976790;28;20417;-76
2022/03/11 08:41:27;;;;;;;26.00;15.32;;;6.30;99.90;;;;;;4976976;28;20049;-77
2022/03/11 08:43:54;;;;;;;30.38;16.23;;;6.40;99.90;;;;;;4977029;28;20062;-76
2022/03/11 08:46:20;;;;;;;31.13;17.48;;;6.50;99.90;;;;;;4977091;28;20047;-76
2022/03/11 08:48:45;;;;;;;28.67;17.20;;;6.50;99.90;;;;;;4977060;28;20046;-78
2022/03/11 08:51:11;;;;;;;28.10;16.15;;;6.60;99.90;;;;;;4976936;28;20050;-78
2022/03/11 08:53:37;;;;;;;28.30;16.25;;;6.70;99.90;;;;;;4994364;28;20490;-77
2022/03/11 08:56:03;;;;;;;27.45;16.48;;;6.80;99.90;;;;;;4994201;28;20050;-77
2022/03/11 08:58:29;;;;;;;30.08;16.67;;;6.80;99.90;;;;;;4976650;28;20145;-78
2022/03/11 09:00:55;;;;;;;30.27;16.52;;;6.80;99.90;;;;;;4994067;28;20573;-78
2022/03/11 09:03:21;;;;;;;28.25;16.38;;;7.00;99.90;;;;;;4976836;28;20079;-77
2022/03/11 09:05:47;;;;;;;33.28;16.83;;;7.10;99.90;;;;;;4994286;28;20490;-79
2022/03/11 09:08:13;;;;;;;31.33;16.70;;;7.20;99.90;;;;;;4994271;28;20434;-78
2022/03/11 09:10:38;;;;;;;27.35;16.77;;;7.20;99.90;;;;;;5002478;28;20049;-78
2022/03/11 09:13:04;;;;;;;25.52;15.77;;;7.30;99.90;;;;;;4996067;28;20049;-78
2022/03/11 09:15:30;;;;;;;31.13;16.42;;;7.40;99.90;;;;;;5013394;28;20145;-78
2022/03/11 09:17:56;;;;;;;27.23;15.02;;;7.50;99.90;;;;;;4991926;28;20050;-78
2022/03/11 09:20:22;;;;;;;29.27;15.77;;;7.70;99.90;;;;;;5012475;28;20561;-78
2022/03/11 09:22:48;;;;;;;25.15;15.40;;;7.80;99.90;;;;;;5013651;28;20042;-78
2022/03/11 09:25:16;;;;;;;28.73;16.27;;;7.70;99.90;;;;;;4996019;28;20136;-78
2022/03/11 09:27:42;;;;;;;28.17;16.10;;;7.80;99.90;;;;;;5013239;28;20517;-78
2022/03/11 09:30:09;;;;;;;32.05;15.70;;;7.80;99.90;;;;;;5013300;28;20084;-78
2022/03/11 09:32:36;;;;;;;28.25;15.32;;;7.90;99.90;;;;;;4995452;28;20444;-78
2022/03/11 09:35:02;;;;;;;27.83;16.55;;;8.00;99.90;;;;;;5013474;28;20042;-78
2022/03/11 09:37:27;;;;;;;33.10;15.10;;;8.20;99.90;;;;;;5013066;28;20103;-78
2022/03/11 09:39:54;;;;;;;33.13;16.17;;;8.20;99.90;;;;;;4995960;28;20072;-79
2022/03/11 09:42:20;;;;;;;29.88;17.33;;;8.20;99.90;;;;;;5013189;28;20493;-78
2022/03/11 09:44:54;;;;;;;26.80;14.88;;;8.20;99.90;;;;;;4995560;28;20054;-79
2022/03/11 09:47:21;;;;;;;31.20;16.20;;;8.40;99.90;;;;;;4995819;28;20041;-79
2022/03/11 09:49:48;;;;;;;31.30;15.98;;;8.40;99.90;;;;;;5013330;28;20052;-79
2022/03/11 09:52:15;;;;;;;25.85;14.95;;;8.50;99.90;;;;;;5013192;28;20038;-79
2022/03/11 09:54:41;;;;;;;30.33;16.75;;;8.60;99.90;;;;;;5013447;28;20126;-79
2022/03/11 09:57:06;;;;;;;30.42;17.17;;;8.50;99.90;;;;;;4995074;28;20128;-78
2022/03/11 09:59:32;;;;;;;29.00;16.15;;;8.60;99.90;;;;;;5012878;28;20473;-78
2022/03/11 10:01:58;;;;;;;31.27;17.10;;;8.80;99.90;;;;;;4995468;28;20100;-78
2022/03/11 10:04:25;;;;;;;32.35;16.20;;;8.90;99.90;;;;;;4994111;28;20042;-77
2022/03/11 10:06:54;;;;;;;27.70;16.17;;;8.90;99.90;;;;;;5012669;28;20050;-78
2022/03/11 10:09:19;;;;;;;28.15;16.27;;;8.90;99.90;;;;;;4995074;28;20046;-80
2022/03/11 10:11:49;;;;;;;30.67;17.25;;;8.90;99.90;;;;;;5010834;28;20707;-78
2022/03/11 10:14:16;;;;;;;25.13;14.13;;;8.90;99.90;;;;;;4994926;28;20046;-78
2022/03/11 10:16:44;;;;;;;27.90;15.77;;;8.90;99.90;;;;;;5012670;28;20441;-80
2022/03/11 10:19:13;;;;;;;29.42;16.77;;;9.10;99.90;;;;;;4995447;28;20046;-77
2022/03/11 10:21:45;;;;;;;29.50;17.23;;;9.20;99.90;;;;;;4995233;28;20057;-78
2022/03/11 10:24:15;;;;;;;29.58;16.42;;;9.30;99.90;;;;;;4995588;28;20045;-79
2022/03/11 10:26:48;;;;;;;30.02;16.67;;;9.40;99.90;;;;;;4995290;28;20042;-78
2022/03/11 10:29:20;;;;;;;33.30;16.52;;;9.40;98.90;;;;;;4995556;28;20076;-78
2022/03/11 10:31:52;;;;;;;29.30;16.95;;;9.40;98.60;;;;;;4998844;28;20046;-77
2022/03/11 10:34:18;;;;;;;27.77;16.83;;;9.50;99.90;;;;;;4999134;28;20128;-78
2022/03/11 10:36:52;;;;;;;29.77;17.30;;;9.50;98.60;;;;;;4999139;28;20855;-79
2022/03/11 10:39:22;;;;;;;33.70;18.27;;;9.50;98.70;;;;;;4998389;28;20045;-78
2022/03/11 10:41:50;;;;;;;27.85;15.40;;;9.50;97.30;;;;;;4998668;28;20042;-78
2022/03/11 10:44:27;;;;;;;31.95;16.48;;;9.50;97.90;;;;;;4998668;28;20064;-78
2022/03/11 10:47:18;;;;;;;28.17;16.17;;;9.60;96.20;;;;;;4998798;28;20054;-78
2022/03/11 10:49:51;;;;;;;29.48;17.60;;;9.70;97.80;;;;;;4998375;28;20052;-81
2022/03/11 10:52:43;;;;;;;30.92;16.75;;;9.80;96.20;;;;;;4998553;28;20049;-77
2022/03/11 10:55:23;;;;;;;31.00;17.83;;;9.90;96.30;;;;;;4998514;28;20053;-77
2022/03/11 10:57:53;;;;;;;29.27;16.95;;;10.10;96.40;;;;;;4998315;28;20056;-77
2022/03/11 11:00:26;;;;;;;29.25;17.70;;;10.10;96.20;;;;;;4998323;28;20409;-77
2022/03/11 11:02:54;;;;;;;30.90;16.15;;;10.30;95.30;;;;;;4998123;28;20038;-77
2022/03/11 11:05:21;;;;;;;31.48;17.15;;;10.10;93.60;;;;;;4998653;28;20057;-77
2022/03/11 11:07:47;;;;;;;34.88;16.25;;;10.30;94.40;;;;;;4998161;28;20049;-77
2022/03/11 11:10:15;;;;;;;27.48;16.48;;;10.30;95.20;;;;;;4998547;28;20046;-77
2022/03/11 11:12:42;;;;;;;26.88;16.83;;;10.50;94.80;;;;;;4998298;28;20445;-77
2022/03/11 11:15:09;;;;;;;27.58;16.65;;;10.30;93.20;;;;;;4998110;28;20397;-77
2022/03/11 11:17:40;;;;;;;27.60;15.80;;;10.40;94.00;;;;;;4997965;28;20053;-77
2022/03/11 11:20:30;;;;;;;30.55;16.80;;;10.40;92.50;;;;;;4998460;28;20133;-77
2022/03/11 11:22:57;;;;;;;30.20;16.25;;;10.40;92.20;;;;;;4997512;28;20111;-77
2022/03/11 11:25:24;;;;;;;28.58;17.17;;;10.60;94.50;;;;;;4997169;28;20085;-77
2022/03/11 11:27:51;;;;;;;27.17;16.48;;;10.70;92.10;;;;;;4997518;28;20077;-77
2022/03/11 11:30:23;;;;;;;29.38;16.85;;;10.70;93.60;;;;;;4997363;28;20050;-77
2022/03/11 11:32:52;;;;;;;28.48;16.25;;;10.50;92.10;;;;;;4997582;28;20127;-77
2022/03/11 11:35:32;;;;;;;27.33;16.55;;;10.50;93.00;;;;;;5015115;28;20053;-77
2022/03/11 11:38:00;;;;;;;32.03;17.33;;;10.50;91.70;;;;;;5014599;28;20116;-77
2022/03/11 11:40:33;;;;;;;27.55;16.80;;;10.50;92.10;;;;;;4995772;28;20442;-77
2022/03/11 11:43:11;;;;;;;;;;;10.50;91.10;;;;;;5013631;28;20042;-76
2022/03/11 11:45:46;;;;;;;28.10;15.80;;;10.60;91.30;;;;;;4997240;28;19922;-76
2022/03/11 11:48:34;;;;;;;27.42;17.67;;;10.60;92.60;;;;;;5014778;28;20402;-76
2022/03/11 11:51:05;;;;;;;28.65;16.83;;;10.70;90.20;;;;;;5014912;28;20066;-77
2022/03/11 11:53:56;;;;;;;29.67;16.40;;;10.70;91.30;;;;;;5014926;28;20077;-76
2022/03/11 11:57:00;;;;;;;28.15;15.55;;;10.90;91.10;;;;;;5014700;28;20063;-76
2022/03/11 11:59:35;;;;;;;29.25;15.55;;;10.90;90.40;;;;;;5014799;28;20054;-76
2022/03/11 12:02:04;;;;;;;31.27;16.98;;;10.90;90.20;;;;;;5014764;28;20068;-78
2022/03/11 12:04:37;;;;;;;30.00;16.08;;;11.00;90.10;;;;;;5014751;28;20037;-77
2022/03/11 12:07:17;;;;;;;32.13;17.05;;;11.00;91.30;;;;;;5014821;28;20054;-77
2022/03/11 12:09:51;;;;;;;26.73;15.68;;;11.10;88.10;;;;;;5014459;28;20044;-77
2022/03/11 12:12:20;;;;;;;27.17;17.42;;;11.00;87.60;;;;;;4997067;28;20038;-81
2022/03/11 12:14:57;;;;;;;28.50;15.82;;;11.10;86.90;;;;;;5014293;28;20042;-79
2022/03/11 12:17:52;;;;;;;28.33;16.50;;;11.20;84.20;;;;;;4996534;28;20108;-80
2022/03/11 12:20:39;;;;;;;25.88;16.40;;;11.20;86.00;;;;;;5014218;28;20494;-81
2022/03/11 12:23:15;;;;;;;27.67;17.52;;;11.30;86.90;;;;;;4997010;28;20109;-82
2022/03/11 12:25:45;;;;;;;27.58;16.33;;;11.30;82.00;;;;;;5014313;28;20050;-82
2022/03/11 12:28:18;;;;;;;26.02;15.80;;;11.30;84.40;;;;;;4996559;28;20417;-82
2022/03/11 12:30:47;;;;;;;25.73;17.00;;;11.50;83.50;;;;;;5014103;28;20581;-83
2022/03/11 12:33:19;;;;;;;27.38;15.85;;;11.40;80.00;;;;;;4996695;28;20405;-80
2022/03/11 12:35:48;;;;;;;27.67;15.32;;;11.40;79.60;;;;;;5014015;28;20141;-79
2022/03/11 12:38:17;;;;;;;26.52;16.08;;;11.50;81.70;;;;;;5013733;28;20382;-80
2022/03/11 12:40:44;;;;;;;27.88;16.00;;;11.50;79.80;;;;;;5013927;28;20494;-79